KBAD/BAD METAR and TAF weather

Enter ICAO airport designator
Station Type Date Time Source
KBAD METAR 2018/10/21 05:46 UTC NOAA

KBAD 210546Z AUTO 00000KT 2SM BR CLR 12/11 A3025 RMK AO2 VIS 1 1/2V2 SLP246 $


Station Type Date Time Source
KBAD Decoded METAR 2018/10/21 05:46 UTC NOAA

Barksdale Air Force Base, LA, United States (KBAD) 32-30N 093-40W
Oct 21, 2018 - 01:46 AM EDT / 2018.10.21 0546 UTC
Wind: Calm:0
Visibility: 2 mile(s):0
Sky conditions: clear
Weather: mist
Temperature: 53 F (12 C)
Dew Point: 51 F (11 C)
Relative Humidity: 93%
Pressure (altimeter): 30.25 in. Hg (1024 hPa)
ob: KBAD 210546Z AUTO 00000KT 2SM BR CLR 12/11 A3025 RMK AO2 VIS 1 1/2V2 SLP246
cycle: 6

Station Type Date Time Source
KBAD TAF 2018/10/21 01:24 UTC NOAA

TAF
AMD KBAD 210117Z 2101/2124 01006KT 9999 FEW010 SCT025 QNH3011INS
BECMG 2102/2103 VRB06KT 9999 SKC QNH3023INS
BECMG 2114/2115 06012G18KT 9999 FEW210 QNH3038INS
BECMG 2117/2118 05010KT 9999 FEW240 QNH3025INS TX20/2118Z TN11/2114Z LAST NO
AMDS AFT 2101 NEXT 2110


Example: see airport list